RYR3BU EGNM-EPKK
Flight info
| Callsign | RYR3BU |
|---|---|
| Flight time | N/A |
| Altitude | 37000 |
| Route | LAMIX L603 LAMSO DCT POVEL L986 MAG DCT LASIS T714 MOFKE |
| Aircraft | B38M/M-SDE1FGHILORVWXY/HB1 |
Departure
| Time | 2026-04-29 16:30 |
|---|---|
| Airport | Leeds Bradford Airport (EGNM) |
Arrival
| Time | N/A |
|---|---|
| Airport | Kraków John Paul II International Airport (EPKK) |
| Time | Latitude | Longitude | Altitude | Speed | Heading |
|---|---|---|---|---|---|
| 2026-04-29 16:05 | 53.86878 | -1.65760 | 667 ft | 0 kts | 1° |
| 2026-04-29 16:20 | 53.86875 | -1.65760 | 667 ft | 3 kts | 1° |
| 2026-04-29 16:20 | 53.86849 | -1.65761 | 667 ft | 2 kts | 1° |
| 2026-04-29 16:20 | 53.86829 | -1.65757 | 667 ft | 4 kts | 324° |
| 2026-04-29 16:21 | 53.86817 | -1.65724 | 666 ft | 4 kts | 273° |
| 2026-04-29 16:21 | 53.86817 | -1.65681 | 667 ft | 4 kts | 271° |
| 2026-04-29 16:21 | 53.86816 | -1.65651 | 667 ft | 4 kts | 271° |
| 2026-04-29 16:21 | 53.86816 | -1.65598 | 666 ft | 0 kts | 271° |
| 2026-04-29 16:24 | 53.86816 | -1.65602 | 666 ft | 2 kts | 271° |
| 2026-04-29 16:24 | 53.86816 | -1.65639 | 666 ft | 4 kts | 271° |
| 2026-04-29 16:24 | 53.86817 | -1.65696 | 667 ft | 6 kts | 271° |
| 2026-04-29 16:24 | 53.86813 | -1.65766 | 667 ft | 7 kts | 263° |
| 2026-04-29 16:25 | 53.86813 | -1.65853 | 668 ft | 8 kts | 272° |
| 2026-04-29 16:25 | 53.86815 | -1.65963 | 668 ft | 10 kts | 271° |
| 2026-04-29 16:25 | 53.86827 | -1.66083 | 667 ft | 11 kts | 302° |
| 2026-04-29 16:25 | 53.86877 | -1.66178 | 669 ft | 11 kts | 317° |
| 2026-04-29 16:26 | 53.86917 | -1.66242 | 669 ft | 13 kts | 317° |
| 2026-04-29 16:26 | 53.86978 | -1.66389 | 674 ft | 10 kts | 298° |
| 2026-04-29 16:26 | 53.86995 | -1.66486 | 676 ft | 8 kts | 252° |
| 2026-04-29 16:26 | 53.86959 | -1.66576 | 674 ft | 11 kts | 251° |
| 2026-04-29 16:27 | 53.86996 | -1.66679 | 677 ft | 11 kts | 316° |
| 2026-04-29 16:27 | 53.87062 | -1.66784 | 682 ft | 16 kts | 321° |
| 2026-04-29 16:27 | 53.87171 | -1.66946 | 682 ft | 21 kts | 317° |
| 2026-04-29 16:27 | 53.87289 | -1.66993 | 691 ft | 21 kts | 2° |
| 2026-04-29 16:28 | 53.87354 | -1.66995 | 691 ft | 20 kts | 347° |
| 2026-04-29 16:28 | 53.87376 | -1.67156 | 686 ft | 9 kts | 226° |
| 2026-04-29 16:28 | 53.87316 | -1.67172 | 685 ft | 11 kts | 142° |
| 2026-04-29 16:29 | 53.87286 | -1.67127 | 686 ft | 7 kts | 137° |
| 2026-04-29 16:29 | 53.87181 | -1.66965 | 689 ft | 45 kts | 137° |
| 2026-04-29 16:29 | 53.86722 | -1.66258 | 670 ft | 129 kts | 138° |
| 2026-04-29 16:29 | 53.85936 | -1.65032 | 965 ft | 170 kts | 136° |
| 2026-04-29 16:30 | 53.84982 | -1.63707 | 1891 ft | 183 kts | 135° |
| 2026-04-29 16:30 | 53.83984 | -1.62208 | 2594 ft | 198 kts | 130° |
| 2026-04-29 16:30 | 53.82964 | -1.60440 | 3194 ft | 216 kts | 129° |
| 2026-04-29 16:30 | 53.82053 | -1.58476 | 4428 ft | 210 kts | 111° |
| 2026-04-29 16:31 | 53.81557 | -1.56040 | 4890 ft | 231 kts | 116° |
| 2026-04-29 16:31 | 53.80398 | -1.54140 | 4896 ft | 237 kts | 148° |
| 2026-04-29 16:31 | 53.78962 | -1.52683 | 5012 ft | 243 kts | 143° |
| 2026-04-29 16:31 | 53.77546 | -1.51092 | 5150 ft | 245 kts | 143° |
| 2026-04-29 16:32 | 53.76142 | -1.49475 | 5326 ft | 248 kts | 143° |
| 2026-04-29 16:32 | 53.75188 | -1.48377 | 5711 ft | 250 kts | 143° |
| 2026-04-29 16:32 | 53.73258 | -1.46153 | 6696 ft | 254 kts | 143° |
| 2026-04-29 16:32 | 53.72288 | -1.45033 | 6826 ft | 254 kts | 143° |
| 2026-04-29 16:33 | 53.69369 | -1.41667 | 7093 ft | 254 kts | 143° |
| 2026-04-29 16:33 | 53.67903 | -1.39977 | 7274 ft | 257 kts | 143° |
| 2026-04-29 16:33 | 53.66423 | -1.38274 | 8158 ft | 255 kts | 142° |
| 2026-04-29 16:34 | 53.64955 | -1.36584 | 9260 ft | 258 kts | 142° |
| 2026-04-29 16:34 | 53.63456 | -1.34861 | 10255 ft | 263 kts | 142° |
| 2026-04-29 16:34 | 53.61920 | -1.33097 | 11015 ft | 274 kts | 142° |
| 2026-04-29 16:34 | 53.60283 | -1.31219 | 11489 ft | 295 kts | 142° |
| 2026-04-29 16:35 | 53.58527 | -1.29208 | 11888 ft | 316 kts | 142° |
| 2026-04-29 16:35 | 53.56668 | -1.27080 | 12419 ft | 330 kts | 142° |
| 2026-04-29 16:35 | 53.54743 | -1.24879 | 13153 ft | 337 kts | 142° |
| 2026-04-29 16:35 | 53.52800 | -1.22659 | 14015 ft | 340 kts | 142° |
| 2026-04-29 16:36 | 53.50827 | -1.20409 | 14740 ft | 345 kts | 142° |
| 2026-04-29 16:36 | 53.48832 | -1.18135 | 15445 ft | 349 kts | 142° |
| 2026-04-29 16:36 | 53.46812 | -1.15832 | 16122 ft | 353 kts | 142° |
| 2026-04-29 16:36 | 53.44992 | -1.13092 | 16782 ft | 352 kts | 126° |
| 2026-04-29 16:37 | 53.43706 | -1.09590 | 17423 ft | 355 kts | 117° |
| 2026-04-29 16:37 | 53.42529 | -1.05921 | 18066 ft | 359 kts | 117° |
| 2026-04-29 16:37 | 53.41370 | -1.02186 | 18711 ft | 363 kts | 116° |
| 2026-04-29 16:37 | 53.40603 | -0.99680 | 19066 ft | 366 kts | 116° |
| 2026-04-29 16:38 | 53.39053 | -0.94556 | 19808 ft | 371 kts | 116° |
| 2026-04-29 16:38 | 53.37857 | -0.90703 | 20356 ft | 374 kts | 117° |
| 2026-04-29 16:38 | 53.36639 | -0.86823 | 20904 ft | 378 kts | 117° |
| 2026-04-29 16:38 | 53.35414 | -0.82913 | 21447 ft | 381 kts | 117° |
| 2026-04-29 16:39 | 53.34176 | -0.78964 | 21975 ft | 385 kts | 117° |
| 2026-04-29 16:39 | 53.32926 | -0.74980 | 22500 ft | 388 kts | 117° |
| 2026-04-29 16:39 | 53.31665 | -0.70966 | 23025 ft | 392 kts | 118° |
| 2026-04-29 16:39 | 53.30528 | -0.66807 | 23508 ft | 396 kts | 108° |
| 2026-04-29 16:40 | 53.29726 | -0.62453 | 24009 ft | 399 kts | 109° |
| 2026-04-29 16:40 | 53.28885 | -0.58010 | 24415 ft | 402 kts | 109° |
| 2026-04-29 16:40 | 53.28040 | -0.53538 | 24866 ft | 404 kts | 109° |
| 2026-04-29 16:40 | 53.27192 | -0.49048 | 25304 ft | 406 kts | 109° |
| 2026-04-29 16:41 | 53.26337 | -0.44532 | 25737 ft | 409 kts | 109° |
| 2026-04-29 16:41 | 53.25477 | -0.40002 | 26163 ft | 411 kts | 109° |
| 2026-04-29 16:41 | 53.24608 | -0.35437 | 26579 ft | 413 kts | 109° |
| 2026-04-29 16:41 | 53.23733 | -0.30849 | 26996 ft | 416 kts | 109° |
| 2026-04-29 16:42 | 53.22853 | -0.26242 | 27406 ft | 418 kts | 109° |
| 2026-04-29 16:42 | 53.21964 | -0.21608 | 27797 ft | 420 kts | 109° |
| 2026-04-29 16:42 | 53.21070 | -0.16952 | 28183 ft | 423 kts | 109° |
| 2026-04-29 16:42 | 53.20169 | -0.12271 | 28572 ft | 425 kts | 109° |
| 2026-04-29 16:43 | 53.19262 | -0.07571 | 28949 ft | 427 kts | 109° |
| 2026-04-29 16:43 | 53.18347 | -0.02844 | 29321 ft | 429 kts | 109° |
| 2026-04-29 16:43 | 53.17426 | 0.01906 | 29682 ft | 432 kts | 109° |
| 2026-04-29 16:43 | 53.16495 | 0.06692 | 30006 ft | 435 kts | 109° |
| 2026-04-29 16:44 | 53.15557 | 0.11498 | 30379 ft | 437 kts | 109° |
| 2026-04-29 16:44 | 53.14618 | 0.16303 | 30772 ft | 436 kts | 109° |
| 2026-04-29 16:44 | 53.13679 | 0.21098 | 31216 ft | 435 kts | 109° |
| 2026-04-29 16:44 | 53.12738 | 0.25885 | 31650 ft | 433 kts | 109° |
| 2026-04-29 16:45 | 53.11802 | 0.30640 | 32085 ft | 432 kts | 109° |
| 2026-04-29 16:45 | 53.10867 | 0.35376 | 32513 ft | 430 kts | 109° |
| 2026-04-29 16:45 | 53.09933 | 0.40098 | 32945 ft | 429 kts | 109° |
| 2026-04-29 16:45 | 53.08998 | 0.44808 | 33374 ft | 427 kts | 109° |
| 2026-04-29 16:46 | 53.08066 | 0.49493 | 33801 ft | 426 kts | 109° |
| 2026-04-29 16:46 | 53.07149 | 0.54100 | 34175 ft | 425 kts | 109° |
| 2026-04-29 16:46 | 53.06215 | 0.58772 | 34483 ft | 426 kts | 109° |
| 2026-04-29 16:46 | 53.05277 | 0.63451 | 34801 ft | 425 kts | 109° |
| 2026-04-29 16:47 | 53.04341 | 0.68116 | 35126 ft | 425 kts | 109° |
| 2026-04-29 16:47 | 53.03392 | 0.72833 | 35430 ft | 425 kts | 109° |
| 2026-04-29 16:47 | 53.02453 | 0.77485 | 35731 ft | 424 kts | 109° |
| 2026-04-29 16:47 | 53.01515 | 0.82125 | 36025 ft | 424 kts | 109° |
| 2026-04-29 16:48 | 53.00574 | 0.86768 | 36316 ft | 423 kts | 109° |
| 2026-04-29 16:48 | 52.99648 | 0.91327 | 36615 ft | 423 kts | 109° |
| 2026-04-29 16:48 | 52.98709 | 0.95946 | 36913 ft | 422 kts | 109° |
| 2026-04-29 16:48 | 52.97833 | 1.00579 | 37169 ft | 421 kts | 103° |
| 2026-04-29 16:49 | 52.97276 | 1.05357 | 37376 ft | 422 kts | 101° |
| 2026-04-29 16:49 | 52.96713 | 1.10153 | 37397 ft | 424 kts | 101° |
| 2026-04-29 16:49 | 52.95601 | 1.19726 | 37389 ft | 422 kts | 101° |
| 2026-04-29 16:50 | 52.94487 | 1.29288 | 37383 ft | 422 kts | 101° |
| 2026-04-29 16:50 | 52.93365 | 1.38858 | 37383 ft | 422 kts | 101° |
| 2026-04-29 16:51 | 52.92236 | 1.48415 | 37383 ft | 423 kts | 101° |
| 2026-04-29 16:51 | 52.91098 | 1.57982 | 37383 ft | 424 kts | 101° |
| 2026-04-29 16:52 | 52.89948 | 1.67568 | 37380 ft | 424 kts | 101° |
| 2026-04-29 16:52 | 52.88799 | 1.77083 | 37380 ft | 424 kts | 101° |
| 2026-04-29 16:53 | 52.87628 | 1.86712 | 37380 ft | 424 kts | 101° |
| 2026-04-29 16:53 | 52.86456 | 1.96287 | 37377 ft | 424 kts | 101° |
| 2026-04-29 16:54 | 52.85284 | 2.05792 | 37378 ft | 425 kts | 101° |
| 2026-04-29 16:54 | 52.84094 | 2.15366 | 37368 ft | 425 kts | 101° |
| 2026-04-29 16:55 | 52.82896 | 2.24946 | 37366 ft | 425 kts | 101° |
| 2026-04-29 16:55 | 52.81690 | 2.34518 | 37365 ft | 425 kts | 101° |
| 2026-04-29 16:56 | 52.80478 | 2.44093 | 37366 ft | 425 kts | 101° |
| 2026-04-29 16:56 | 52.79254 | 2.53660 | 37377 ft | 425 kts | 100° |
| 2026-04-29 16:57 | 52.78022 | 2.63231 | 37366 ft | 426 kts | 101° |
| 2026-04-29 16:57 | 52.76782 | 2.72813 | 37366 ft | 426 kts | 101° |
| 2026-04-29 16:58 | 52.75533 | 2.82388 | 37365 ft | 426 kts | 101° |
| 2026-04-29 16:58 | 52.74278 | 2.91949 | 37367 ft | 426 kts | 101° |
| 2026-04-29 16:59 | 52.73208 | 3.01548 | 37373 ft | 424 kts | 92° |
| 2026-04-29 16:59 | 52.72774 | 3.11276 | 37362 ft | 425 kts | 92° |
| 2026-04-29 17:00 | 52.72335 | 3.20992 | 37372 ft | 425 kts | 92° |
| 2026-04-29 17:00 | 52.71889 | 3.30769 | 37371 ft | 425 kts | 93° |
| 2026-04-29 17:01 | 52.71440 | 3.40418 | 37362 ft | 425 kts | 93° |
| 2026-04-29 17:01 | 52.70982 | 3.50128 | 37370 ft | 425 kts | 93° |
| 2026-04-29 17:02 | 52.70515 | 3.59838 | 37366 ft | 424 kts | 92° |
| 2026-04-29 17:02 | 52.70041 | 3.69520 | 37361 ft | 424 kts | 92° |
| 2026-04-29 17:03 | 52.69560 | 3.79203 | 37359 ft | 424 kts | 92° |
| 2026-04-29 17:03 | 52.69069 | 3.88898 | 37355 ft | 424 kts | 92° |
| 2026-04-29 17:04 | 52.68572 | 3.98584 | 37354 ft | 424 kts | 92° |
| 2026-04-29 17:04 | 52.68066 | 4.08264 | 37355 ft | 424 kts | 92° |
| 2026-04-29 17:05 | 52.67553 | 4.17933 | 37355 ft | 423 kts | 92° |
| 2026-04-29 17:05 | 52.67032 | 4.27602 | 37355 ft | 423 kts | 92° |
| 2026-04-29 17:06 | 52.66503 | 4.37270 | 37355 ft | 424 kts | 92° |
| 2026-04-29 17:06 | 52.65967 | 4.46937 | 37354 ft | 424 kts | 92° |
| 2026-04-29 17:07 | 52.65514 | 4.54975 | 37354 ft | 424 kts | 92° |
| 2026-04-29 17:07 | 52.64869 | 4.66266 | 37358 ft | 424 kts | 92° |
| 2026-04-29 17:08 | 52.64309 | 4.75929 | 37353 ft | 424 kts | 93° |
| 2026-04-29 17:08 | 52.63740 | 4.85595 | 37353 ft | 424 kts | 93° |
| 2026-04-29 17:09 | 52.63164 | 4.95254 | 37355 ft | 424 kts | 93° |
| 2026-04-29 17:09 | 52.62580 | 5.04915 | 37346 ft | 424 kts | 92° |
| 2026-04-29 17:10 | 52.61986 | 5.14586 | 37354 ft | 425 kts | 92° |
| 2026-04-29 17:10 | 52.61386 | 5.24246 | 37351 ft | 425 kts | 92° |
| 2026-04-29 17:11 | 52.60777 | 5.33916 | 37349 ft | 425 kts | 92° |
| 2026-04-29 17:11 | 52.60160 | 5.43577 | 37348 ft | 425 kts | 92° |
| 2026-04-29 17:12 | 52.59642 | 5.51602 | 37369 ft | 425 kts | 92° |
| 2026-04-29 17:12 | 52.59118 | 5.59632 | 37348 ft | 425 kts | 92° |
| 2026-04-29 17:13 | 52.58372 | 5.70911 | 37352 ft | 425 kts | 92° |
| 2026-04-29 17:13 | 52.57620 | 5.82128 | 37357 ft | 425 kts | 92° |
| 2026-04-29 17:14 | 52.57071 | 5.90215 | 37358 ft | 425 kts | 92° |
| 2026-04-29 17:14 | 52.56408 | 5.99867 | 37392 ft | 425 kts | 92° |
| 2026-04-29 17:15 | 52.55737 | 6.09514 | 37368 ft | 425 kts | 92° |
| 2026-04-29 17:15 | 52.55059 | 6.19158 | 37365 ft | 425 kts | 92° |
| 2026-04-29 17:16 | 52.54376 | 6.28754 | 37373 ft | 425 kts | 92° |
| 2026-04-29 17:16 | 52.53682 | 6.38394 | 37373 ft | 425 kts | 92° |
| 2026-04-29 17:17 | 52.52978 | 6.48053 | 37376 ft | 425 kts | 92° |
| 2026-04-29 17:17 | 52.52267 | 6.57700 | 37376 ft | 425 kts | 92° |
| 2026-04-29 17:18 | 52.51549 | 6.67343 | 37374 ft | 426 kts | 92° |
| 2026-04-29 17:18 | 52.50822 | 6.76992 | 37376 ft | 426 kts | 92° |
| 2026-04-29 17:19 | 52.50087 | 6.86639 | 37377 ft | 426 kts | 92° |
| 2026-04-29 17:19 | 52.49344 | 6.96279 | 37375 ft | 426 kts | 92° |
| 2026-04-29 17:20 | 52.48594 | 7.05917 | 37388 ft | 426 kts | 92° |
| 2026-04-29 17:20 | 52.47839 | 7.15503 | 37372 ft | 426 kts | 92° |
| 2026-04-29 17:21 | 52.47072 | 7.25142 | 37372 ft | 426 kts | 92° |
| 2026-04-29 17:21 | 52.46297 | 7.34782 | 37373 ft | 426 kts | 92° |
| 2026-04-29 17:22 | 52.45515 | 7.44416 | 37385 ft | 426 kts | 92° |
| 2026-04-29 17:22 | 52.44723 | 7.54061 | 37385 ft | 427 kts | 92° |
| 2026-04-29 17:23 | 52.43925 | 7.63694 | 37387 ft | 427 kts | 92° |
| 2026-04-29 17:23 | 52.43117 | 7.73337 | 37384 ft | 427 kts | 92° |
| 2026-04-29 17:24 | 52.42299 | 7.82997 | 37384 ft | 427 kts | 92° |
| 2026-04-29 17:24 | 52.41475 | 7.92644 | 37385 ft | 427 kts | 92° |
| 2026-04-29 17:25 | 52.40646 | 8.02249 | 37394 ft | 428 kts | 92° |
| 2026-04-29 17:25 | 52.39807 | 8.11886 | 37391 ft | 428 kts | 92° |
| 2026-04-29 17:26 | 52.38963 | 8.21476 | 37387 ft | 427 kts | 92° |
| 2026-04-29 17:26 | 52.38103 | 8.31156 | 37391 ft | 428 kts | 92° |
| 2026-04-29 17:27 | 52.37239 | 8.40789 | 37398 ft | 428 kts | 92° |
| 2026-04-29 17:27 | 52.36373 | 8.50362 | 37404 ft | 428 kts | 92° |
| 2026-04-29 17:28 | 52.35492 | 8.60006 | 37395 ft | 429 kts | 92° |
| 2026-04-29 17:28 | 52.34602 | 8.69656 | 37399 ft | 429 kts | 92° |
| 2026-04-29 17:29 | 52.33705 | 8.79295 | 37399 ft | 429 kts | 93° |
| 2026-04-29 17:29 | 52.32947 | 8.87371 | 37400 ft | 429 kts | 93° |
| 2026-04-29 17:30 | 52.31885 | 8.98585 | 37416 ft | 430 kts | 93° |
| 2026-04-29 17:30 | 52.30961 | 9.08246 | 37403 ft | 430 kts | 93° |
| 2026-04-29 17:31 | 52.30030 | 9.17894 | 37406 ft | 430 kts | 93° |
| 2026-04-29 17:31 | 52.29091 | 9.27535 | 37400 ft | 430 kts | 93° |
| 2026-04-29 17:32 | 52.28145 | 9.37171 | 37396 ft | 430 kts | 93° |
| 2026-04-29 17:32 | 52.27189 | 9.46818 | 37404 ft | 430 kts | 93° |
| 2026-04-29 17:33 | 52.26227 | 9.56454 | 37397 ft | 430 kts | 93° |
| 2026-04-29 17:33 | 52.25261 | 9.66033 | 37397 ft | 430 kts | 93° |
| 2026-04-29 17:34 | 52.24283 | 9.75662 | 37396 ft | 430 kts | 94° |
| 2026-04-29 17:34 | 52.23297 | 9.85283 | 37390 ft | 430 kts | 94° |
| 2026-04-29 17:35 | 52.21800 | 9.99737 | 37398 ft | 432 kts | 94° |
| 2026-04-29 17:36 | 52.20791 | 10.09393 | 37395 ft | 432 kts | 94° |
| 2026-04-29 17:36 | 52.19776 | 10.19043 | 37399 ft | 432 kts | 94° |
| 2026-04-29 17:37 | 52.18754 | 10.28684 | 37401 ft | 432 kts | 94° |
| 2026-04-29 17:37 | 52.17725 | 10.38326 | 37418 ft | 432 kts | 94° |
| 2026-04-29 17:38 | 52.16685 | 10.47981 | 37427 ft | 433 kts | 94° |
| 2026-04-29 17:38 | 52.15638 | 10.57645 | 37418 ft | 433 kts | 94° |
| 2026-04-29 17:39 | 52.14582 | 10.67308 | 37424 ft | 434 kts | 94° |
| 2026-04-29 17:39 | 52.13516 | 10.76989 | 37413 ft | 434 kts | 94° |
| 2026-04-29 17:40 | 52.12301 | 10.86624 | 37420 ft | 436 kts | 97° |
| 2026-04-29 17:40 | 52.10969 | 10.96262 | 37408 ft | 438 kts | 99° |
| 2026-04-29 17:41 | 52.09321 | 11.05828 | 37402 ft | 439 kts | 99° |
| 2026-04-29 17:41 | 52.07700 | 11.15403 | 37415 ft | 439 kts | 99° |
| 2026-04-29 17:42 | 52.06078 | 11.24975 | 37409 ft | 439 kts | 99° |
| 2026-04-29 17:42 | 52.04448 | 11.34542 | 37445 ft | 439 kts | 99° |
| 2026-04-29 17:43 | 52.02807 | 11.44120 | 37430 ft | 441 kts | 99° |
| 2026-04-29 17:43 | 52.01155 | 11.53709 | 37422 ft | 441 kts | 99° |
| 2026-04-29 17:44 | 51.99495 | 11.63293 | 37422 ft | 441 kts | 99° |
| 2026-04-29 17:44 | 51.97827 | 11.72871 | 37421 ft | 441 kts | 99° |
| 2026-04-29 17:45 | 51.96152 | 11.82443 | 37452 ft | 441 kts | 99° |
| 2026-04-29 17:45 | 51.94464 | 11.92029 | 37420 ft | 442 kts | 99° |
| 2026-04-29 17:46 | 51.92770 | 12.01604 | 37417 ft | 442 kts | 99° |
| 2026-04-29 17:46 | 51.91069 | 12.11165 | 37417 ft | 442 kts | 100° |
| 2026-04-29 17:47 | 51.89369 | 12.20670 | 37421 ft | 442 kts | 100° |
| 2026-04-29 17:47 | 51.87638 | 12.30295 | 37443 ft | 443 kts | 100° |
| 2026-04-29 17:48 | 51.85904 | 12.39892 | 37427 ft | 445 kts | 100° |
| 2026-04-29 17:48 | 51.84171 | 12.49428 | 37423 ft | 445 kts | 101° |
| 2026-04-29 17:49 | 51.82406 | 12.59090 | 37423 ft | 445 kts | 101° |
| 2026-04-29 17:49 | 51.81242 | 12.65433 | 37427 ft | 445 kts | 101° |
| 2026-04-29 17:50 | 51.78877 | 12.78261 | 37444 ft | 446 kts | 101° |
| 2026-04-29 17:50 | 51.77095 | 12.87865 | 37441 ft | 447 kts | 101° |
| 2026-04-29 17:51 | 51.75303 | 12.97471 | 37428 ft | 447 kts | 101° |
| 2026-04-29 17:51 | 51.73504 | 13.07067 | 37428 ft | 447 kts | 101° |
| 2026-04-29 17:52 | 51.72002 | 13.15046 | 37423 ft | 447 kts | 101° |
| 2026-04-29 17:52 | 51.69878 | 13.26267 | 37429 ft | 449 kts | 101° |
| 2026-04-29 17:53 | 51.68355 | 13.34266 | 37429 ft | 449 kts | 101° |
| 2026-04-29 17:53 | 51.66519 | 13.43874 | 37424 ft | 449 kts | 101° |
| 2026-04-29 17:54 | 51.64673 | 13.53481 | 37426 ft | 449 kts | 101° |
| 2026-04-29 17:54 | 51.62820 | 13.63076 | 37427 ft | 449 kts | 101° |
| 2026-04-29 17:55 | 51.60951 | 13.72705 | 37415 ft | 452 kts | 101° |
| 2026-04-29 17:55 | 51.59070 | 13.82350 | 37423 ft | 452 kts | 102° |
| 2026-04-29 17:56 | 51.57181 | 13.91981 | 37422 ft | 452 kts | 102° |
| 2026-04-29 17:56 | 51.55284 | 14.01614 | 37428 ft | 452 kts | 102° |
| 2026-04-29 17:57 | 51.53378 | 14.11236 | 37422 ft | 452 kts | 102° |
| 2026-04-29 17:57 | 51.51465 | 14.20851 | 37426 ft | 452 kts | 102° |
| 2026-04-29 17:58 | 51.49543 | 14.30459 | 37424 ft | 452 kts | 102° |
| 2026-04-29 17:58 | 51.47613 | 14.40063 | 37425 ft | 452 kts | 102° |
| 2026-04-29 17:59 | 51.45675 | 14.49660 | 37423 ft | 452 kts | 102° |
| 2026-04-29 17:59 | 51.43726 | 14.59265 | 37430 ft | 455 kts | 102° |
| 2026-04-29 18:00 | 51.41770 | 14.68858 | 37434 ft | 456 kts | 102° |
| 2026-04-29 18:00 | 51.39791 | 14.78513 | 37432 ft | 456 kts | 102° |
| 2026-04-29 18:01 | 51.37807 | 14.88148 | 37433 ft | 456 kts | 102° |
| 2026-04-29 18:01 | 51.35811 | 14.97793 | 37434 ft | 456 kts | 103° |
| 2026-04-29 18:02 | 51.33805 | 15.07441 | 37427 ft | 458 kts | 103° |
| 2026-04-29 18:02 | 51.31782 | 15.17121 | 37433 ft | 459 kts | 103° |
| 2026-04-29 18:03 | 51.29753 | 15.26788 | 37437 ft | 459 kts | 103° |
| 2026-04-29 18:03 | 51.27716 | 15.36446 | 37437 ft | 459 kts | 103° |
| 2026-04-29 18:04 | 51.25668 | 15.46109 | 37459 ft | 460 kts | 103° |
| 2026-04-29 18:04 | 51.23599 | 15.55820 | 37445 ft | 463 kts | 103° |
| 2026-04-29 18:05 | 51.21517 | 15.65547 | 37426 ft | 463 kts | 103° |
| 2026-04-29 18:05 | 51.19430 | 15.75257 | 37427 ft | 463 kts | 103° |
| 2026-04-29 18:06 | 51.17332 | 15.84967 | 37443 ft | 463 kts | 103° |
| 2026-04-29 18:06 | 51.14331 | 15.94215 | 36764 ft | 495 kts | 128° |